EZY49EM EGKK-LOWI
Flight info
| Callsign | EZY49EM |
|---|---|
| Flight time | N/A |
| Altitude | 31000 |
| Route | DVR2P DVR L9 KONAN DCT KOK UL607 FERDI DCT REMBA DCT LIRSU DCT KRH DCT TEDGO/N0452F350 DCT BATUB/N0450F310 M738 MADEB MADEB1B |
| Aircraft | A32N/M-V/N |
Departure
| Time | 2026-05-07 17:49 |
|---|---|
| Airport | London Gatwick Airport (EGKK) |
Arrival
| Time | N/A |
|---|---|
| Airport | Innsbruck Airport (LOWI) |
| Time | Latitude | Longitude | Altitude | Speed | Heading |
|---|---|---|---|---|---|
| 2026-05-07 17:23 | 51.15327 | -0.17905 | 204 ft | 0 kts | 348° |
| 2026-05-07 17:37 | 51.15324 | -0.17904 | 204 ft | 1 kts | 348° |
| 2026-05-07 17:37 | 51.15306 | -0.17898 | 213 ft | 3 kts | 348° |
| 2026-05-07 17:38 | 51.15286 | -0.17891 | 210 ft | 3 kts | 348° |
| 2026-05-07 17:38 | 51.15269 | -0.17885 | 211 ft | 3 kts | 335° |
| 2026-05-07 17:38 | 51.15254 | -0.17868 | 212 ft | 3 kts | 296° |
| 2026-05-07 17:38 | 51.15249 | -0.17839 | 204 ft | 3 kts | 265° |
| 2026-05-07 17:39 | 51.15251 | -0.17816 | 208 ft | 1 kts | 257° |
| 2026-05-07 17:39 | 51.15252 | -0.17810 | 204 ft | 0 kts | 257° |
| 2026-05-07 17:43 | 51.15243 | -0.17873 | 215 ft | 15 kts | 257° |
| 2026-05-07 17:43 | 51.15216 | -0.18065 | 212 ft | 19 kts | 257° |
| 2026-05-07 17:43 | 51.15189 | -0.18285 | 213 ft | 21 kts | 267° |
| 2026-05-07 17:44 | 51.15161 | -0.18510 | 213 ft | 21 kts | 257° |
| 2026-05-07 17:44 | 51.15128 | -0.18741 | 215 ft | 22 kts | 258° |
| 2026-05-07 17:44 | 51.15096 | -0.18981 | 208 ft | 23 kts | 258° |
| 2026-05-07 17:44 | 51.15063 | -0.19226 | 205 ft | 23 kts | 257° |
| 2026-05-07 17:45 | 51.15029 | -0.19477 | 206 ft | 23 kts | 251° |
| 2026-05-07 17:45 | 51.14994 | -0.19719 | 205 ft | 23 kts | 257° |
| 2026-05-07 17:45 | 51.14961 | -0.19967 | 204 ft | 23 kts | 256° |
| 2026-05-07 17:45 | 51.14928 | -0.20207 | 208 ft | 21 kts | 257° |
| 2026-05-07 17:46 | 51.14900 | -0.20407 | 213 ft | 20 kts | 257° |
| 2026-05-07 17:46 | 51.14869 | -0.20638 | 210 ft | 22 kts | 258° |
| 2026-05-07 17:46 | 51.14836 | -0.20881 | 208 ft | 23 kts | 257° |
| 2026-05-07 17:46 | 51.14799 | -0.21129 | 210 ft | 23 kts | 253° |
| 2026-05-07 17:47 | 51.14758 | -0.21362 | 204 ft | 18 kts | 254° |
| 2026-05-07 17:47 | 51.14731 | -0.21406 | 212 ft | 1 kts | 192° |
| 2026-05-07 17:47 | 51.14724 | -0.21408 | 210 ft | 3 kts | 189° |
| 2026-05-07 17:47 | 51.14686 | -0.21393 | 211 ft | 11 kts | 157° |
| 2026-05-07 17:48 | 51.14591 | -0.21320 | 211 ft | 20 kts | 163° |
| 2026-05-07 17:48 | 51.14524 | -0.21127 | 212 ft | 29 kts | 77° |
| 2026-05-07 17:48 | 51.14616 | -0.20471 | 213 ft | 91 kts | 77° |
| 2026-05-07 17:48 | 51.14789 | -0.19221 | 217 ft | 137 kts | 77° |
| 2026-05-07 17:49 | 51.14937 | -0.18159 | 216 ft | 159 kts | 78° |
| 2026-05-07 17:49 | 51.15243 | -0.15877 | 972 ft | 150 kts | 82° |
| 2026-05-07 17:49 | 51.15437 | -0.14270 | 1607 ft | 144 kts | 82° |
| 2026-05-07 17:49 | 51.15586 | -0.12670 | 1961 ft | 156 kts | 85° |
| 2026-05-07 17:50 | 51.15737 | -0.10862 | 2300 ft | 170 kts | 83° |
| 2026-05-07 17:50 | 51.15945 | -0.08982 | 2830 ft | 176 kts | 80° |
| 2026-05-07 17:50 | 51.16256 | -0.07025 | 3245 ft | 188 kts | 74° |
| 2026-05-07 17:50 | 51.16624 | -0.05003 | 3735 ft | 195 kts | 75° |
| 2026-05-07 17:51 | 51.16857 | -0.02784 | 4089 ft | 213 kts | 89° |
| 2026-05-07 17:51 | 51.16837 | -0.00320 | 4426 ft | 234 kts | 91° |
| 2026-05-07 17:51 | 51.16793 | 0.02346 | 4846 ft | 248 kts | 91° |
| 2026-05-07 17:51 | 51.16739 | 0.05197 | 5313 ft | 263 kts | 91° |
| 2026-05-07 17:52 | 51.16682 | 0.08120 | 6142 ft | 265 kts | 91° |
| 2026-05-07 17:52 | 51.16627 | 0.11043 | 6858 ft | 271 kts | 92° |
| 2026-05-07 17:52 | 51.16572 | 0.14086 | 7533 ft | 278 kts | 92° |
| 2026-05-07 17:52 | 51.16525 | 0.17201 | 8218 ft | 284 kts | 91° |
| 2026-05-07 17:53 | 51.16528 | 0.20376 | 8954 ft | 289 kts | 91° |
| 2026-05-07 17:53 | 51.16549 | 0.23598 | 9700 ft | 294 kts | 91° |
| 2026-05-07 17:53 | 51.16569 | 0.26886 | 10367 ft | 298 kts | 91° |
| 2026-05-07 17:53 | 51.16583 | 0.30188 | 11105 ft | 300 kts | 91° |
| 2026-05-07 17:54 | 51.16592 | 0.33528 | 11820 ft | 303 kts | 91° |
| 2026-05-07 17:54 | 51.16595 | 0.36899 | 12520 ft | 306 kts | 91° |
| 2026-05-07 17:54 | 51.16594 | 0.40300 | 13234 ft | 308 kts | 92° |
| 2026-05-07 17:54 | 51.16591 | 0.43734 | 13891 ft | 312 kts | 92° |
| 2026-05-07 17:55 | 51.16588 | 0.47210 | 14484 ft | 316 kts | 91° |
| 2026-05-07 17:55 | 51.16584 | 0.50734 | 14979 ft | 324 kts | 91° |
| 2026-05-07 17:55 | 51.16581 | 0.54421 | 15166 ft | 342 kts | 91° |
| 2026-05-07 17:55 | 51.16578 | 0.58309 | 15347 ft | 360 kts | 91° |
| 2026-05-07 17:56 | 51.16576 | 0.62364 | 15676 ft | 371 kts | 91° |
| 2026-05-07 17:56 | 51.16573 | 0.66503 | 16270 ft | 375 kts | 91° |
| 2026-05-07 17:56 | 51.16567 | 0.70669 | 16868 ft | 379 kts | 91° |
| 2026-05-07 17:56 | 51.16559 | 0.74879 | 17450 ft | 383 kts | 91° |
| 2026-05-07 17:57 | 51.16547 | 0.79141 | 18042 ft | 387 kts | 91° |
| 2026-05-07 17:57 | 51.16538 | 0.81989 | 18405 ft | 389 kts | 91° |
| 2026-05-07 17:57 | 51.16520 | 0.87781 | 19110 ft | 393 kts | 91° |
| 2026-05-07 17:57 | 51.16505 | 0.92150 | 19629 ft | 396 kts | 91° |
| 2026-05-07 17:58 | 51.16488 | 0.96555 | 20169 ft | 399 kts | 91° |
| 2026-05-07 17:58 | 51.16469 | 1.00996 | 20658 ft | 402 kts | 91° |
| 2026-05-07 17:58 | 51.16449 | 1.05415 | 21419 ft | 397 kts | 91° |
| 2026-05-07 17:58 | 51.16427 | 1.09853 | 21656 ft | 408 kts | 91° |
| 2026-05-07 17:59 | 51.16402 | 1.14419 | 22056 ft | 412 kts | 91° |
| 2026-05-07 17:59 | 51.16376 | 1.19004 | 22535 ft | 415 kts | 91° |
| 2026-05-07 17:59 | 51.16348 | 1.23618 | 22989 ft | 418 kts | 91° |
| 2026-05-07 17:59 | 51.16317 | 1.28270 | 23442 ft | 422 kts | 91° |
| 2026-05-07 18:00 | 51.16285 | 1.32956 | 23849 ft | 425 kts | 91° |
| 2026-05-07 18:00 | 51.16192 | 1.37507 | 24212 ft | 427 kts | 96° |
| 2026-05-07 18:00 | 51.15946 | 1.42394 | 24604 ft | 429 kts | 95° |
| 2026-05-07 18:00 | 51.15719 | 1.47153 | 24959 ft | 432 kts | 95° |
| 2026-05-07 18:01 | 51.15495 | 1.51898 | 25323 ft | 435 kts | 95° |
| 2026-05-07 18:01 | 51.15263 | 1.56750 | 25696 ft | 437 kts | 95° |
| 2026-05-07 18:01 | 51.15029 | 1.61590 | 26048 ft | 439 kts | 95° |
| 2026-05-07 18:01 | 51.14790 | 1.66452 | 26381 ft | 442 kts | 95° |
| 2026-05-07 18:02 | 51.14299 | 1.76261 | 27049 ft | 447 kts | 95° |
| 2026-05-07 18:02 | 51.14052 | 1.81144 | 27367 ft | 449 kts | 95° |
| 2026-05-07 18:02 | 51.13798 | 1.86112 | 27684 ft | 451 kts | 96° |
| 2026-05-07 18:03 | 51.13538 | 1.91173 | 28003 ft | 454 kts | 96° |
| 2026-05-07 18:03 | 51.13281 | 1.96124 | 28306 ft | 456 kts | 96° |
| 2026-05-07 18:03 | 51.12887 | 2.01122 | 28586 ft | 457 kts | 104° |
| 2026-05-07 18:03 | 51.11886 | 2.05907 | 28848 ft | 456 kts | 116° |
| 2026-05-07 18:04 | 51.10583 | 2.10520 | 29117 ft | 458 kts | 116° |
| 2026-05-07 18:04 | 51.09260 | 2.15138 | 29388 ft | 460 kts | 116° |
| 2026-05-07 18:04 | 51.07930 | 2.19777 | 29645 ft | 462 kts | 116° |
| 2026-05-07 18:04 | 51.06596 | 2.24430 | 29904 ft | 464 kts | 116° |
| 2026-05-07 18:05 | 51.05255 | 2.29110 | 30147 ft | 466 kts | 116° |
| 2026-05-07 18:05 | 51.03910 | 2.33798 | 30375 ft | 467 kts | 116° |
| 2026-05-07 18:05 | 51.02558 | 2.38507 | 30622 ft | 469 kts | 116° |
| 2026-05-07 18:05 | 51.01202 | 2.43219 | 30859 ft | 470 kts | 116° |
| 2026-05-07 18:06 | 50.99837 | 2.47951 | 31017 ft | 472 kts | 116° |
| 2026-05-07 18:06 | 50.97094 | 2.57418 | 31059 ft | 471 kts | 116° |
| 2026-05-07 18:07 | 50.94368 | 2.66777 | 31056 ft | 471 kts | 117° |
| 2026-05-07 18:07 | 50.91597 | 2.76252 | 31053 ft | 471 kts | 117° |
| 2026-05-07 18:08 | 50.88848 | 2.85614 | 31056 ft | 470 kts | 118° |